Time;durP1;ratioP1;P1;durP2;ratioP2;P2;SDS_P1;SDS_P2;PMS_P1;PMS_P2;Temp;Humidity;BMP_temperature;BMP_pressure;BME280_temperature;BME280_humidity;BME280_pressure;Samples;Min_cycle;Max_cycle;Signal;HPM_P1;HPM_P2
2023/05/15 00:00:36;;;;;;;38.10;20.43;;;;;;;-145.18;100.00;46648.69;4974494;28;20517;-68
2023/05/15 00:03:02;;;;;;;37.77;21.60;;;;;;;-145.18;100.00;46646.72;4974185;28;20070;-68
2023/05/15 00:05:27;;;;;;;35.23;19.93;;;;;;;-145.18;100.00;46650.63;4973601;28;20058;-68
2023/05/15 00:07:53;;;;;;;38.20;21.83;;;;;;;-145.18;100.00;46644.78;4973521;28;20078;-69
2023/05/15 00:10:18;;;;;;;36.43;21.47;;;;;;;-145.18;100.00;46644.78;4974279;28;20034;-69
2023/05/15 00:12:44;;;;;;;39.17;21.17;;;;;;;-145.18;100.00;46646.72;4974050;28;20081;-69
2023/05/15 00:15:09;;;;;;;34.47;20.60;;;;;;;-145.18;100.00;46648.69;4974498;28;20046;-69
2023/05/15 00:17:35;;;;;;;35.43;19.53;;;;;;;-145.18;100.00;46648.69;4956272;28;20035;-69
2023/05/15 00:20:00;;;;;;;36.70;19.40;;;;;;;-145.18;100.00;46640.88;4954215;28;20032;-69
2023/05/15 00:22:25;;;;;;;33.60;18.57;;;;;;;-145.18;100.00;46650.63;4953937;29;20089;-69
2023/05/15 00:24:51;;;;;;;34.57;19.20;;;;;;;-145.18;100.00;46650.63;4954832;29;20031;-68
2023/05/15 00:27:17;;;;;;;34.13;19.13;;;;;;;-145.18;100.00;46648.69;4954633;29;20089;-69
2023/05/15 00:29:42;;;;;;;37.40;20.97;;;;;;;-145.18;100.00;46644.78;4957264;28;20042;-69
2023/05/15 00:32:08;;;;;;;42.90;22.10;;;;;;;-145.18;100.00;46644.78;4973928;28;20042;-68
2023/05/15 00:34:33;;;;;;;45.77;22.80;;;;;;;-145.18;100.00;46648.69;4973586;28;20039;-69
2023/05/15 00:36:59;;;;;;;46.47;21.37;;;;;;;-145.18;100.00;46648.69;4959396;28;20400;-69
2023/05/15 00:39:25;;;;;;;46.23;23.13;;;;;;;-145.18;100.00;46640.88;4954425;29;20042;-69
2023/05/15 00:41:51;;;;;;;47.20;23.33;;;;;;;-145.18;100.00;46644.78;4972987;28;20050;-69
2023/05/15 00:44:19;;;;;;;48.53;23.87;;;;;;;-145.18;100.00;46640.88;4973716;28;20046;-69
2023/05/15 00:46:45;;;;;;;44.77;23.50;;;;;;;-145.18;100.00;46642.81;4973348;28;20260;-69
2023/05/15 00:49:14;;;;;;;47.23;23.27;;;;;;;-145.18;100.00;46646.72;4973118;28;20856;-69
2023/05/15 00:51:41;;;;;;;44.10;25.13;;;;;;;-145.18;100.00;46646.72;4969948;28;20269;-69
2023/05/15 00:54:08;;;;;;;48.43;25.07;;;;;;;-145.18;100.00;46646.72;4958013;28;20276;-69
2023/05/15 00:56:34;;;;;;;45.13;24.33;;;;;;;-145.18;100.00;46644.78;4963865;28;20280;-69
2023/05/15 00:59:01;;;;;;;48.03;24.83;;;;;;;-145.18;100.00;46642.81;4956806;28;20297;-69
2023/05/15 01:01:32;;;;;;;47.97;22.93;;;;;;;-145.18;100.00;46642.81;4953775;29;20035;-68
2023/05/15 01:03:57;;;;;;;47.73;24.93;;;;;;;-145.18;100.00;46646.72;4958773;28;20275;-69
2023/05/15 01:06:23;;;;;;;46.60;23.27;;;;;;;-145.18;100.00;46644.78;4972406;28;20269;-69
2023/05/15 01:08:50;;;;;;;47.57;22.77;;;;;;;-145.18;100.00;46642.81;4962964;28;20043;-69
2023/05/15 01:11:16;;;;;;;46.80;22.57;;;;;;;-145.18;100.00;46644.78;4953948;29;20064;-69
2023/05/15 01:13:43;;;;;;;42.70;23.40;;;;;;;-145.18;100.00;46644.78;4953697;28;20282;-69
2023/05/15 01:16:09;;;;;;;46.97;24.53;;;;;;;-145.18;100.00;46642.81;4962328;28;20291;-68
2023/05/15 01:18:35;;;;;;;46.03;23.90;;;;;;;-145.18;100.00;46646.72;4955065;28;20304;-69
2023/05/15 01:21:01;;;;;;;45.57;23.00;;;;;;;-145.18;100.00;46640.88;4955920;28;20273;-69
2023/05/15 01:23:26;;;;;;;48.10;22.20;;;;;;;-145.18;100.00;46646.72;4971986;28;20035;-69
2023/05/15 01:26:22;;;;;;;45.13;22.37;;;;;;;-145.18;100.00;46646.72;4953494;29;20723;-69
2023/05/15 01:29:11;;;;;;;49.42;23.70;;;;;;;-145.18;100.00;46650.63;4953636;29;20027;-69
2023/05/15 01:31:40;;;;;;;46.07;22.40;;;;;;;-145.18;100.00;46644.78;4952841;28;20261;-69
2023/05/15 01:34:08;;;;;;;61.53;23.70;;;;;;;-145.18;100.00;46642.81;4954528;28;20285;-69
2023/05/15 01:36:45;;;;;;;48.33;22.63;;;;;;;-145.18;100.00;46646.72;4953077;29;20279;-69
2023/05/15 01:39:14;;;;;;;46.30;22.57;;;;;;;-145.18;100.00;46642.81;4953131;29;20285;-69
2023/05/15 01:41:52;;;;;;;44.50;22.67;;;;;;;-145.18;100.00;46644.78;4952967;29;20276;-69
2023/05/15 01:44:32;;;;;;;44.40;21.53;;;;;;;-145.18;100.00;46636.94;4963037;28;20276;-69
2023/05/15 01:47:00;;;;;;;48.63;24.20;;;;;;;-145.18;100.00;46640.88;4970613;28;20749;-69
2023/05/15 01:49:27;;;;;;;47.50;23.00;;;;;;;-145.18;100.00;46636.94;4972033;28;20303;-69
2023/05/15 01:52:00;;;;;;;51.43;21.63;;;;;;;-145.18;100.00;46638.91;4972201;28;20265;-69
2023/05/15 01:54:28;;;;;;;47.43;23.27;;;;;;;-145.18;100.00;46638.91;4956803;28;20280;-69
2023/05/15 01:56:55;;;;;;;59.10;25.30;;;;;;;-145.18;100.00;46635.00;4965356;28;20273;-69
2023/05/15 01:59:22;;;;;;;53.60;25.77;;;;;;;-145.18;100.00;46638.91;4971967;28;20273;-68
2023/05/15 02:04:18;;;;;;;53.13;25.77;;;;;;;-145.18;100.00;46635.00;4956916;28;20293;-68
2023/05/15 02:06:46;;;;;;;61.50;25.07;;;;;;;-145.18;100.00;46636.94;4971225;28;20304;-67
2023/05/15 02:09:12;;;;;;;61.60;27.63;;;;;;;-145.18;100.00;46636.94;4971231;28;20688;-68
2023/05/15 02:11:38;;;;;;;73.13;27.57;;;;;;;-145.18;100.00;46638.91;4954933;28;20290;-68
2023/05/15 02:14:04;;;;;;;60.57;27.37;;;;;;;-145.18;100.00;46636.94;4952302;28;20309;-68
2023/05/15 02:16:29;;;;;;;69.67;28.43;;;;;;;-145.18;100.00;46633.06;4964829;28;20332;-68
2023/05/15 02:18:55;;;;;;;65.27;28.80;;;;;;;-145.18;100.00;46636.94;4958463;28;20050;-68
2023/05/15 02:21:21;;;;;;;69.03;29.23;;;;;;;-145.18;100.00;46636.94;4972166;28;20054;-68
2023/05/15 02:23:46;;;;;;;66.87;26.63;;;;;;;-145.18;100.00;46636.94;4971417;28;20026;-68
2023/05/15 02:26:25;;;;;;;75.60;28.20;;;;;;;-145.18;100.00;46635.00;4972047;28;20106;-68
2023/05/15 02:29:29;;;;;;;68.17;27.80;;;;;;;-145.18;100.00;46636.94;4969037;28;20050;-68
2023/05/15 02:32:24;;;;;;;69.00;30.17;;;;;;;-145.18;100.00;46633.06;4952349;29;20288;-68
2023/05/15 02:35:06;;;;;;;63.30;27.47;;;;;;;-145.18;100.00;46633.06;4942045;29;20277;-68
2023/05/15 02:37:34;;;;;;;70.37;29.77;;;;;;;-145.18;100.00;46635.00;4958638;28;20653;-68
2023/05/15 02:40:03;;;;;;;68.17;26.70;;;;;;;-145.18;100.00;46631.09;4960081;28;20281;-68
2023/05/15 02:42:31;;;;;;;71.53;27.87;;;;;;;-145.18;100.00;46635.00;4952194;28;20618;-68
2023/05/15 02:44:57;;;;;;;61.67;27.10;;;;;;;-145.18;100.00;46636.94;4951828;29;20269;-68
2023/05/15 02:47:25;;;;;;;66.53;27.27;;;;;;;-145.18;100.00;46635.00;4952157;29;20287;-68
2023/05/15 02:49:51;;;;;;;61.73;26.53;;;;;;;-145.18;100.00;46633.06;4961368;28;20035;-68
2023/05/15 02:52:16;;;;;;;67.47;28.63;;;;;;;-145.18;100.00;46633.06;4971460;28;20354;-68
2023/05/15 02:54:42;;;;;;;65.33;28.23;;;;;;;-145.18;100.00;46636.94;4954401;28;20363;-68
2023/05/15 02:57:07;;;;;;;71.07;28.37;;;;;;;-145.18;100.00;46636.94;4965772;28;20062;-68
2023/05/15 02:59:33;;;;;;;78.77;30.83;;;;;;;-145.18;100.00;46633.06;4952196;29;20377;-68
2023/05/15 03:01:59;;;;;;;67.00;29.57;;;;;;;-145.18;100.00;46631.09;4951630;29;20046;-67
2023/05/15 03:04:24;;;;;;;78.00;29.63;;;;;;;-145.18;100.00;46633.06;4952254;29;20277;-68
2023/05/15 03:06:49;;;;;;;78.90;33.47;;;;;;;-145.18;100.00;46631.09;4951802;29;20027;-68
2023/05/15 03:09:15;;;;;;;75.17;29.10;;;;;;;-145.18;100.00;46638.91;4951966;29;20043;-68
2023/05/15 03:11:41;;;;;;;71.73;30.93;;;;;;;-145.18;100.00;46635.00;4952050;29;20042;-68
2023/05/15 03:14:06;;;;;;;86.47;32.00;;;;;;;-145.18;100.00;46629.13;4951894;29;20046;-68
2023/05/15 03:16:31;;;;;;;80.60;31.67;;;;;;;-145.18;100.00;46635.00;4952101;29;20046;-68
2023/05/15 03:18:57;;;;;;;87.67;31.70;;;;;;;-145.18;100.00;46636.94;4951701;29;20043;-68
2023/05/15 03:21:22;;;;;;;89.77;33.43;;;;;;;-145.18;100.00;46635.00;4952088;29;20078;-68
2023/05/15 03:23:47;;;;;;;81.00;31.10;;;;;;;-145.18;100.00;46636.94;4951700;29;20473;-68
2023/05/15 03:26:13;;;;;;;92.13;33.27;;;;;;;-145.18;100.00;46633.06;4952202;29;20039;-68
2023/05/15 03:28:38;;;;;;;83.67;32.30;;;;;;;-145.18;100.00;46638.91;4951655;29;20555;-68
2023/05/15 03:31:04;;;;;;;87.80;33.03;;;;;;;-145.18;100.00;46629.13;4948575;29;20062;-68
2023/05/15 03:33:30;;;;;;;89.60;33.23;;;;;;;-145.18;100.00;46635.00;4946640;29;20049;-68
2023/05/15 03:35:55;;;;;;;92.33;32.87;;;;;;;-145.18;100.00;46631.09;4926456;29;20147;-69
2023/05/15 03:38:21;;;;;;;90.63;32.47;;;;;;;-145.18;100.00;46635.00;4945897;29;20293;-70
2023/05/15 03:40:46;;;;;;;92.80;34.70;;;;;;;-145.18;100.00;46627.19;4951182;29;20396;-67
2023/05/15 03:43:12;;;;;;;91.50;34.87;;;;;;;-145.18;100.00;46635.00;4951303;29;20090;-68
2023/05/15 03:45:38;;;;;;;80.40;30.80;;;;;;;-145.18;100.00;46633.06;4949168;29;20038;-68
2023/05/15 03:48:03;;;;;;;82.67;31.90;;;;;;;-145.18;100.00;46631.09;4941009;29;20028;-68
2023/05/15 03:50:29;;;;;;;78.57;32.77;;;;;;;-145.18;100.00;46635.00;4944148;29;20086;-70
2023/05/15 03:52:54;;;;;;;80.93;31.40;;;;;;;-145.18;100.00;46631.09;4940014;29;20551;-68
2023/05/15 03:55:20;;;;;;;77.00;31.43;;;;;;;-145.18;100.00;46631.09;4944193;29;20042;-67
2023/05/15 03:57:45;;;;;;;70.70;30.30;;;;;;;-145.18;100.00;46635.00;4952324;29;20130;-69
2023/05/15 04:00:11;;;;;;;78.33;32.33;;;;;;;-145.18;100.00;46629.13;4954998;29;20050;-70
2023/05/15 04:02:37;;;;;;;77.40;29.57;;;;;;;-145.18;100.00;46633.06;4954920;29;20098;-70
2023/05/15 04:05:04;;;;;;;72.97;30.20;;;;;;;-145.18;100.00;46631.09;4954879;29;20125;-69
2023/05/15 04:07:30;;;;;;;82.60;31.73;;;;;;;-145.18;100.00;46631.09;4954767;29;20377;-69
2023/05/15 04:09:55;;;;;;;70.37;30.53;;;;;;;-145.18;100.00;46629.13;4955011;29;20630;-69
2023/05/15 04:12:21;;;;;;;71.93;29.57;;;;;;;-145.18;100.00;46631.09;4937781;29;20273;-69
2023/05/15 04:14:46;;;;;;;65.50;30.40;;;;;;;-145.18;100.00;46631.09;4954818;29;20034;-69
2023/05/15 04:17:12;;;;;;;79.57;29.87;;;;;;;-145.18;100.00;46629.13;4954692;29;20047;-70
2023/05/15 04:19:39;;;;;;;75.40;28.87;;;;;;;-145.18;100.00;46633.06;4954986;29;20043;-69
2023/05/15 04:22:05;;;;;;;68.93;28.70;;;;;;;-145.18;100.00;46633.06;4954793;29;20039;-69
2023/05/15 04:24:30;;;;;;;69.53;29.53;;;;;;;-145.18;100.00;46633.06;4954241;29;20340;-69
2023/05/15 04:26:56;;;;;;;67.47;29.27;;;;;;;-145.18;100.00;46635.00;4954481;29;20038;-70
2023/05/15 04:29:21;;;;;;;61.33;26.73;;;;;;;-145.18;100.00;46633.06;4954547;29;20045;-70
2023/05/15 04:31:46;;;;;;;68.73;28.17;;;;;;;-145.18;100.00;46633.06;4954803;29;20114;-70
2023/05/15 04:34:12;;;;;;;68.07;27.80;;;;;;;-145.18;100.00;46631.09;4954499;29;20047;-70
2023/05/15 04:36:37;;;;;;;60.20;27.63;;;;;;;-145.18;100.00;46631.09;4945894;29;20036;-70
2023/05/15 04:39:03;;;;;;;59.43;23.20;;;;;;;-145.18;100.00;46633.06;4947136;29;20137;-70
2023/05/15 04:41:29;;;;;;;66.10;28.73;;;;;;;-145.18;100.00;46627.19;4954636;29;20055;-70
2023/05/15 04:43:54;;;;;;;63.73;26.07;;;;;;;-145.18;100.00;46633.06;4954394;29;20098;-70
2023/05/15 04:46:20;;;;;;;71.50;29.33;;;;;;;-145.18;100.00;46627.19;4953214;29;20035;-70
2023/05/15 04:48:45;;;;;;;72.77;29.03;;;;;;;-145.18;100.00;46633.06;4952885;29;20121;-70
2023/05/15 04:51:11;;;;;;;63.43;26.97;;;;;;;-145.18;100.00;46631.09;4954344;29;20043;-70
2023/05/15 04:53:36;;;;;;;67.10;28.70;;;;;;;-145.18;100.00;46631.09;4954248;29;20548;-70
2023/05/15 04:56:01;;;;;;;63.30;29.30;;;;;;;-145.18;100.00;46629.13;4954171;29;20035;-70
2023/05/15 04:58:27;;;;;;;55.83;26.83;;;;;;;-145.18;100.00;46633.06;4953936;29;20490;-70
2023/05/15 05:00:52;;;;;;;62.50;30.30;;;;;;;-145.18;100.00;46631.09;4954048;29;20062;-70
2023/05/15 05:03:18;;;;;;;74.53;31.20;;;;;;;-145.18;100.00;46631.09;4953839;29;20807;-70
2023/05/15 05:05:43;;;;;;;68.00;31.70;;;;;;;-145.18;100.00;46635.00;4936787;28;20408;-70
2023/05/15 05:08:08;;;;;;;71.13;32.67;;;;;;;-145.18;100.00;46633.06;4953072;29;20035;-70
2023/05/15 05:10:34;;;;;;;72.27;32.17;;;;;;;-145.18;100.00;46629.13;4954019;29;20043;-70
2023/05/15 05:12:59;;;;;;;86.30;34.53;;;;;;;-145.18;100.00;46635.00;4953746;29;20105;-69
2023/05/15 05:15:25;;;;;;;80.87;33.60;;;;;;;-145.18;100.00;46635.00;4954001;29;20485;-70
2023/05/15 05:17:51;;;;;;;78.23;33.40;;;;;;;-145.18;100.00;46631.09;4946831;29;20040;-70
2023/05/15 05:20:17;;;;;;;77.93;32.47;;;;;;;-145.18;100.00;46633.06;4941942;29;20055;-70
2023/05/15 05:22:42;;;;;;;76.17;34.43;;;;;;;-145.18;100.00;46633.06;4925854;29;21082;-70
2023/05/15 05:25:08;;;;;;;75.77;33.70;;;;;;;-145.18;100.00;46629.13;4943276;29;20497;-70
2023/05/15 05:27:33;;;;;;;86.07;35.43;;;;;;;-145.18;100.00;46633.06;4941648;29;20059;-70
2023/05/15 05:29:59;;;;;;;73.87;34.03;;;;;;;-145.18;100.00;46633.06;4943236;29;20551;-70
2023/05/15 05:32:25;;;;;;;80.13;34.27;;;;;;;-145.18;100.00;46635.00;4942814;29;20099;-69
2023/05/15 05:34:50;;;;;;;79.70;33.13;;;;;;;-145.18;100.00;46633.06;4945950;29;20464;-70
2023/05/15 05:37:15;;;;;;;77.47;34.37;;;;;;;-145.18;100.00;46633.06;4944849;29;20023;-70
2023/05/15 05:39:41;;;;;;;86.10;37.07;;;;;;;-145.18;100.00;46629.13;4944480;29;20153;-70
2023/05/15 05:42:06;;;;;;;76.33;34.93;;;;;;;-145.18;100.00;46629.13;4944170;29;20031;-70
2023/05/15 05:44:33;;;;;;;72.13;32.43;;;;;;;-145.18;100.00;46631.09;4941447;29;20066;-70
2023/05/15 05:46:58;;;;;;;73.47;34.40;;;;;;;-145.18;100.00;46631.09;4950492;29;20039;-68
2023/05/15 05:49:23;;;;;;;66.87;31.70;;;;;;;-145.18;100.00;46631.09;4953064;29;20392;-70
2023/05/15 05:51:49;;;;;;;62.17;29.27;;;;;;;-145.18;100.00;46627.19;4952971;29;20139;-70
2023/05/15 05:54:14;;;;;;;67.63;30.73;;;;;;;-145.18;100.00;46636.94;4952805;29;20063;-70
2023/05/15 05:56:41;;;;;;;65.00;30.07;;;;;;;-145.18;100.00;46633.06;4952819;29;20043;-70
2023/05/15 05:59:07;;;;;;;61.07;30.00;;;;;;;-145.18;100.00;46635.00;4952671;29;20039;-70
2023/05/15 06:01:33;;;;;;;62.43;29.00;;;;;;;-145.18;100.00;46636.94;4953127;29;20277;-70
2023/05/15 06:03:58;;;;;;;63.53;31.80;;;;;;;-145.18;100.00;46638.91;4952475;29;20674;-70
2023/05/15 06:06:24;;;;;;;59.87;30.03;;;;;;;-145.18;100.00;46640.88;4953130;29;20050;-70
2023/05/15 06:08:49;;;;;;;57.30;28.53;;;;;;;-145.18;100.00;46638.91;4952441;29;20550;-70
2023/05/15 06:11:14;;;;;;;56.60;27.90;;;;;;;-145.18;100.00;46642.81;4952682;29;20027;-70
2023/05/15 06:13:40;;;;;;;48.40;27.00;;;;;;;-145.18;100.00;46648.69;4952953;29;20035;-70
2023/05/15 06:16:06;;;;;;;46.63;23.97;;;;;;;-145.18;100.00;46646.72;4952765;29;20488;-70
2023/05/15 06:18:31;;;;;;;49.67;24.80;;;;;;;-145.18;100.00;46646.72;4952636;28;20047;-69
2023/05/15 06:20:59;;;;;;;43.83;24.50;;;;;;;-145.18;100.00;46648.69;4952609;29;20042;-70
2023/05/15 06:23:25;;;;;;;45.30;24.50;;;;;;;-145.18;100.00;46650.63;4952538;29;20066;-70
2023/05/15 06:25:50;;;;;;;42.33;23.03;;;;;;;-145.18;100.00;46648.69;4952653;29;20027;-70
2023/05/15 06:28:16;;;;;;;44.37;24.47;;;;;;;-145.18;100.00;46654.53;4952622;29;20262;-70
2023/05/15 06:30:41;;;;;;;45.70;23.47;;;;;;;-145.18;100.00;46650.63;4952530;29;20043;-70
2023/05/15 06:33:06;;;;;;;43.93;24.03;;;;;;;-145.18;100.00;46650.63;4952260;29;20035;-70
2023/05/15 06:35:32;;;;;;;44.40;25.30;;;;;;;-145.18;100.00;46654.53;4952672;29;20583;-68
2023/05/15 06:37:57;;;;;;;48.60;24.17;;;;;;;-145.18;100.00;46664.31;4952064;29;20043;-70
2023/05/15 06:40:23;;;;;;;46.30;25.27;;;;;;;-145.18;100.00;46658.44;4952578;29;20045;-70
2023/05/15 06:42:48;;;;;;;46.40;24.27;;;;;;;-145.18;100.00;46658.44;4952122;29;20027;-70
2023/05/15 06:45:13;;;;;;;43.60;24.57;;;;;;;-145.18;100.00;46656.50;4952432;29;20111;-70
2023/05/15 06:47:39;;;;;;;38.40;23.67;;;;;;;-145.18;100.00;46656.50;4952309;29;20034;-70
2023/05/15 06:50:05;;;;;;;39.43;23.30;;;;;;;-145.18;100.00;46652.59;4952239;29;20376;-70
2023/05/15 06:52:30;;;;;;;47.17;25.27;;;;;;;-145.18;100.00;46660.41;4952323;29;20035;-70
2023/05/15 06:54:56;;;;;;;45.40;24.40;;;;;;;-145.18;100.00;46664.31;4951846;29;20042;-70
2023/05/15 06:57:21;;;;;;;39.93;23.37;;;;;;;-145.18;100.00;46666.25;4952362;29;20067;-68
2023/05/15 06:59:46;;;;;;;39.00;23.40;;;;;;;-145.18;100.00;46660.41;4952106;29;20457;-70
2023/05/15 07:02:12;;;;;;;43.57;24.37;;;;;;;-145.18;100.00;46674.06;4951855;29;20539;-70
2023/05/15 07:04:37;;;;;;;41.90;24.10;;;;;;;-145.18;100.00;46674.06;4952001;29;20058;-70
2023/05/15 07:07:03;;;;;;;40.67;23.53;;;;;;;-145.18;100.00;46668.22;4952078;29;20031;-70
2023/05/15 07:09:28;;;;;;;42.10;23.67;;;;;;;-145.18;100.00;46677.97;4951931;29;20512;-70
2023/05/15 07:11:53;;;;;;;37.63;24.50;;;;;;;-145.18;100.00;46674.06;4951601;29;20400;-70
2023/05/15 07:14:19;;;;;;;37.00;22.43;;;;;;;-145.18;100.00;46674.06;4952004;29;20078;-70
2023/05/15 07:16:45;;;;;;;40.47;23.67;;;;;;;-145.18;100.00;46677.97;4952152;29;20050;-70
2023/05/15 07:19:11;;;;;;;38.53;22.57;;;;;;;-145.18;100.00;46681.88;4951667;29;20031;-70
2023/05/15 07:21:38;;;;;;;35.37;21.83;;;;;;;-145.18;100.00;46679.94;4946031;29;20445;-70
2023/05/15 07:24:04;;;;;;;36.77;21.30;;;;;;;-145.18;100.00;46683.84;4932543;29;20039;-70
2023/05/15 07:26:31;;;;;;;34.73;21.20;;;;;;;-145.18;100.00;46672.13;4933094;29;20031;-70
2023/05/15 07:28:56;;;;;;;34.77;20.73;;;;;;;-145.18;100.00;46672.13;4932520;29;20028;-70
2023/05/15 07:31:22;;;;;;;35.60;20.40;;;;;;;-145.18;100.00;46664.31;4936260;29;20062;-70
2023/05/15 07:33:47;;;;;;;32.27;19.67;;;;;;;-145.18;100.00;46662.34;4936404;29;20151;-70
2023/05/15 07:36:13;;;;;;;34.40;20.90;;;;;;;-145.18;100.00;46656.50;4936385;29;20404;-70
2023/05/15 07:38:38;;;;;;;32.00;20.27;;;;;;;-145.18;100.00;46652.59;4919404;29;20042;-70
2023/05/15 07:41:03;;;;;;;33.73;20.90;;;;;;;-145.18;100.00;46640.88;4936108;29;20039;-70
2023/05/15 07:43:29;;;;;;;35.13;20.10;;;;;;;-145.18;100.00;46636.94;4936363;29;20132;-70
2023/05/15 07:45:54;;;;;;;29.83;19.73;;;;;;;-145.18;100.00;46621.31;4936923;29;20449;-70
2023/05/15 07:48:20;;;;;;;33.90;19.63;;;;;;;-145.18;100.00;46607.66;4936864;29;20048;-70
2023/05/15 07:50:46;;;;;;;31.03;20.00;;;;;;;-145.18;100.00;46586.16;4936471;29;20043;-70
2023/05/15 07:53:15;;;;;;;30.40;20.17;;;;;;;-145.18;100.00;46580.31;4935787;29;20067;-70
2023/05/15 07:55:42;;;;;;;33.83;20.20;;;;;;;-145.18;100.00;46588.13;4936268;29;20111;-70
2023/05/15 07:58:07;;;;;;;32.03;19.27;;;;;;;-145.18;100.00;46595.94;4935766;29;20098;-70
2023/05/15 08:00:33;;;;;;;31.67;19.90;;;;;;;-145.18;100.00;46576.41;4939637;29;20039;-69
2023/05/15 08:02:58;;;;;;;40.43;19.97;;;;;;;-145.18;100.00;46572.50;4954308;29;20122;-69
2023/05/15 08:05:24;;;;;;;34.47;19.20;;;;;;;-145.18;100.00;46566.63;4954977;29;20035;-70
2023/05/15 08:07:49;;;;;;;31.73;19.07;;;;;;;-145.18;100.00;46574.44;4955042;29;20035;-69
2023/05/15 08:10:15;;;;;;;35.40;19.27;;;;;;;-145.18;100.00;46580.31;4955045;29;20027;-70
2023/05/15 08:12:45;;;;;;;30.80;19.23;;;;;;;-145.18;100.00;46584.22;4955184;29;20058;-70
2023/05/15 08:15:11;;;;;;;31.53;18.77;;;;;;;-145.18;100.00;46570.53;4954579;29;20046;-69
2023/05/15 08:17:36;;;;;;;28.17;18.00;;;;;;;-145.18;100.00;46597.88;4954852;29;20633;-70
2023/05/15 08:20:03;;;;;;;27.13;18.67;;;;;;;-145.18;100.00;46592.03;4954685;29;20046;-69
2023/05/15 08:22:29;;;;;;;29.60;18.20;;;;;;;-145.18;100.00;46597.88;4955036;29;20117;-70
2023/05/15 08:24:54;;;;;;;30.33;18.97;;;;;;;-145.18;100.00;46617.41;4954628;29;20038;-69
2023/05/15 08:27:20;;;;;;;32.10;18.83;;;;;;;-145.18;100.00;46627.19;4954998;29;20416;-69
2023/05/15 08:29:46;;;;;;;30.33;18.37;;;;;;;-145.18;100.00;46636.94;4954544;29;20106;-69
2023/05/15 08:32:11;;;;;;;27.83;18.03;;;;;;;-145.18;100.00;46601.78;4954706;29;20035;-69
2023/05/15 08:34:37;;;;;;;29.80;18.83;;;;;;;-145.18;100.00;46597.88;4954693;29;20042;-69
2023/05/15 08:37:03;;;;;;;33.07;19.47;;;;;;;-145.18;100.00;46629.13;4954543;29;20034;-70
2023/05/15 08:39:29;;;;;;;31.53;17.93;;;;;;;-145.18;100.00;46650.63;4954321;29;20531;-69
2023/05/15 08:42:07;;;;;;;31.00;19.37;;;;;;;-145.18;100.00;46650.63;4934257;29;20040;-69
2023/05/15 08:44:32;;;;;;;31.00;18.10;;;;;;;-145.18;100.00;46670.16;4935301;29;20036;-69
2023/05/15 08:46:58;;;;;;;30.37;19.40;;;;;;;-145.18;100.00;46674.06;4935190;29;20469;-69
2023/05/15 08:49:51;;;;;;;37.00;18.40;;;;;;;-145.18;100.00;46677.97;4935268;29;20040;-69
2023/05/15 08:52:16;;;;;;;29.40;17.90;;;;;;;-145.18;100.00;46681.88;4935418;29;20035;-69
2023/05/15 08:54:42;;;;;;;29.70;17.40;;;;;;;-145.18;100.00;46677.97;4934911;29;20038;-69
2023/05/15 08:57:09;;;;;;;25.77;15.90;;;;;;;-145.18;100.00;46676.03;4934852;29;20039;-69
2023/05/15 08:59:34;;;;;;;26.67;15.30;;;;;;;-145.18;100.00;46674.06;4934763;29;20043;-69
2023/05/15 09:02:00;;;;;;;29.60;17.50;;;;;;;-145.18;100.00;46674.06;4934958;29;20544;-69
2023/05/15 09:04:26;;;;;;;25.67;16.30;;;;;;;-145.18;100.00;46668.22;4917564;29;20527;-69
2023/05/15 09:06:52;;;;;;;26.43;15.90;;;;;;;-145.18;100.00;46672.13;4934568;29;20035;-69
2023/05/15 09:09:19;;;;;;;26.10;16.50;;;;;;;-145.18;100.00;46679.94;4934719;29;20442;-69
2023/05/15 09:11:47;;;;;;;27.93;16.07;;;;;;;-145.18;100.00;46681.88;4934689;29;20130;-69
2023/05/15 09:14:12;;;;;;;36.20;17.80;;;;;;;-145.18;100.00;46683.84;4934508;29;20059;-69
2023/05/15 09:16:38;;;;;;;31.47;17.43;;;;;;;-145.18;100.00;46679.94;4934688;29;20632;-69
2023/05/15 09:19:05;;;;;;;31.73;17.60;;;;;;;-145.18;100.00;46677.97;4934338;29;20055;-69
2023/05/15 09:21:31;;;;;;;33.87;18.27;;;;;;;-145.18;100.00;46681.88;4934643;29;20028;-69
2023/05/15 09:24:16;;;;;;;31.60;17.70;;;;;;;-145.18;100.00;46683.84;4934378;29;20043;-69
2023/05/15 09:26:43;;;;;;;34.03;19.13;;;;;;;-145.18;100.00;46681.88;4934676;29;20040;-69
2023/05/15 09:29:09;;;;;;;32.97;19.00;;;;;;;-145.18;100.00;46683.84;4934034;29;20047;-69
2023/05/15 09:31:34;;;;;;;38.00;19.53;;;;;;;-145.18;100.00;46685.78;4934569;29;20032;-69
2023/05/15 09:34:01;;;;;;;35.53;19.13;;;;;;;-145.18;100.00;46685.78;4934173;29;20024;-69
2023/05/15 09:36:27;;;;;;;33.13;19.37;;;;;;;-145.18;100.00;46685.78;4934423;29;20031;-69
2023/05/15 09:38:57;;;;;;;35.57;20.83;;;;;;;-145.18;100.00;46685.78;4933966;29;20500;-69
2023/05/15 09:41:24;;;;;;;35.60;21.30;;;;;;;-145.18;100.00;46685.78;4934205;29;20110;-69
2023/05/15 09:43:50;;;;;;;31.77;19.23;;;;;;;-145.18;100.00;46685.78;4934115;29;20032;-69
2023/05/15 09:46:16;;;;;;;41.80;21.73;;;;;;;-145.18;100.00;46679.94;4929705;29;20046;-69
2023/05/15 09:48:41;;;;;;;38.40;21.47;;;;;;;-145.18;100.00;46683.84;4934055;29;20401;-69
2023/05/15 09:51:26;;;;;;;35.27;20.20;;;;;;;-145.18;100.00;46683.84;4942395;29;20020;-69
2023/05/15 09:53:53;;;;;;;36.97;21.87;;;;;;;-145.18;100.00;46683.84;4933290;29;20036;-69
2023/05/15 09:56:18;;;;;;;40.43;21.23;;;;;;;-145.18;100.00;46681.88;4933951;29;20032;-69
2023/05/15 09:58:57;;;;;;;39.03;21.23;;;;;;;-145.18;100.00;46681.88;4947887;29;20039;-69
2023/05/15 10:01:23;;;;;;;50.23;24.60;;;;;;;-145.18;100.00;46679.94;4953087;29;20082;-69
2023/05/15 10:04:02;;;;;;;46.13;23.13;;;;;;;-145.18;100.00;46681.88;4936386;29;20059;-69
2023/05/15 10:06:39;;;;;;;45.73;23.00;;;;;;;-145.18;100.00;46683.84;4944599;29;20039;-69
2023/05/15 10:09:05;;;;;;;44.77;23.93;;;;;;;-145.18;100.00;46679.94;4934935;29;20546;-69
2023/05/15 10:11:33;;;;;;;50.60;24.40;;;;;;;-145.18;100.00;46681.88;4944642;29;20059;-69
2023/05/15 10:13:59;;;;;;;53.87;26.37;;;;;;;-145.18;100.00;46679.94;4936388;29;20067;-69
2023/05/15 10:16:27;;;;;;;52.90;25.87;;;;;;;-145.18;100.00;46677.97;4937675;29;20074;-69
2023/05/15 10:18:55;;;;;;;54.10;25.23;;;;;;;-145.18;100.00;46677.97;4930931;29;20386;-69
2023/05/15 10:21:22;;;;;;;54.10;27.17;;;;;;;-145.18;100.00;46677.97;4933744;29;20074;-69
2023/05/15 10:23:49;;;;;;;55.80;27.37;;;;;;;-145.18;100.00;46674.06;4932342;29;20515;-69
2023/05/15 10:26:22;;;;;;;60.00;27.47;;;;;;;-145.18;100.00;46677.97;4933063;29;20393;-69
2023/05/15 10:28:49;;;;;;;58.90;27.13;;;;;;;-145.18;100.00;46674.06;4947027;29;20041;-69
2023/05/15 10:31:17;;;;;;;53.20;25.77;;;;;;;-145.18;100.00;46676.03;4938866;29;20090;-69
2023/05/15 10:33:43;;;;;;;60.10;26.67;;;;;;;-145.18;100.00;46677.97;4942354;29;20063;-69
2023/05/15 10:36:09;;;;;;;62.13;29.47;;;;;;;-145.18;100.00;46674.06;4944652;29;20082;-69
2023/05/15 10:38:36;;;;;;;59.67;28.60;;;;;;;-145.18;100.00;46676.03;4952298;29;20039;-69
2023/05/15 10:41:03;;;;;;;53.33;27.43;;;;;;;-145.18;100.00;46676.03;4952075;29;20444;-69
2023/05/15 10:43:29;;;;;;;60.97;29.90;;;;;;;-145.18;100.00;46676.03;4952505;29;20055;-69
2023/05/15 10:45:55;;;;;;;61.13;29.23;;;;;;;-145.18;100.00;46676.03;4952093;29;20042;-69
2023/05/15 10:48:22;;;;;;;64.10;29.83;;;;;;;-145.18;100.00;46679.94;4952362;29;20050;-69
2023/05/15 10:50:48;;;;;;;56.47;30.03;;;;;;;-145.18;100.00;46677.97;4934180;29;20396;-69
2023/05/15 10:53:15;;;;;;;68.43;32.00;;;;;;;-145.18;100.00;46674.06;4951888;29;20035;-69
2023/05/15 10:55:40;;;;;;;67.53;31.17;;;;;;;-145.18;100.00;46674.06;4951933;29;20067;-69